This is the latest recevied weather packets stored in our database for station/object N4QD-13. If no packets are shown the sender has not sent any weather packets the latest 10 day(s).
| Time | Temp. | Humidity | Pressure | Rain* | Wind** | Luminosity | Snow |
|---|---|---|---|---|---|---|---|
| 1777747466 | 15° C | 49% | 1013.8 hPa | 0 mm | - | 558 W/m² | - |
| 1777747163 | 14.44° C | 48% | 1013.7 hPa | 0 mm | - | 386 W/m² | - |
| 1777746859 | 15° C | 48% | 1014 hPa | 0 mm | - | 271 W/m² | - |
| 1777746554 | 15° C | 47% | 1014.1 hPa | 0 mm | - | 258 W/m² | - |
| 1777746250 | 15.56° C | 47% | 1013.9 hPa | 0 mm | - | 308 W/m² | - |
| 1777745947 | 15.56° C | 48% | 1014.2 hPa | 0 mm | - | 340 W/m² | - |
| 1777745645 | 14.44° C | 48% | 1014.3 hPa | 0 mm | - | 730 W/m² | - |
| 1777745343 | 15.56° C | 45% | 1014.2 hPa | 0 mm | - | 337 W/m² | - |
| 1777745040 | 15.56° C | 50% | 1014.5 hPa | 0 mm | - | 630 W/m² | - |
| 1777744735 | 15° C | 46% | 1014.2 hPa | 0 mm | - | 517 W/m² | - |
| 1777744430 | 14.44° C | 52% | 1014.4 hPa | 0 mm | - | 345 W/m² | - |
| 1777744127 | 15° C | 47% | 1014.4 hPa | 0 mm | - | 465 W/m² | - |
| 1777743824 | 14.44° C | 49% | 1014.6 hPa | 0 mm | - | 392 W/m² | - |
| 1777743521 | 15° C | 45% | 1014.4 hPa | 0 mm | - | 400 W/m² | - |
| 1777743218 | 15.56° C | 47% | 1014.6 hPa | 0 mm | - | 383 W/m² | - |
| 1777742916 | 15° C | 50% | 1014.7 hPa | 0 mm | - | 398 W/m² | - |
| 1777742612 | 15° C | 46% | 1014.5 hPa | 0 mm | - | 678 W/m² | - |
| 1777742308 | 12.78° C | 51% | 1014.8 hPa | 0 mm | - | 594 W/m² | - |
| 1777742005 | 14.44° C | 46% | 1014.5 hPa | 0 mm | - | 420 W/m² | - |
| 1777741702 | 13.89° C | 48% | 1015 hPa | 0 mm | - | 425 W/m² | - |
| 1777741398 | 13.89° C | 50% | 1015.2 hPa | 0 mm | - | 333 W/m² | - |
| 1777741095 | 13.33° C | 50% | 1015 hPa | 0 mm | - | 452 W/m² | - |
| 1777740792 | 13.89° C | 50% | 1015 hPa | 0 mm | - | 293 W/m² | - |
| 1777740489 | 13.33° C | 54% | 1014.9 hPa | 0 mm | - | 425 W/m² | - |
| 1777740186 | 15° C | 51% | 1015.1 hPa | 0 mm | - | 325 W/m² | - |
* Rain latest hour (hover to see other rain measurements)
** Current wind speed in m/s (hover to see current wind gust speed)